createdAt,value
2022-09-24T00:01:59.428Z,16.13
2022-09-24T00:04:28.695Z,16.11
2022-09-24T00:06:56.948Z,16.11
2022-09-24T00:09:25.137Z,16.10
2022-09-24T00:11:53.965Z,16.07
2022-09-24T00:14:23.646Z,15.99
2022-09-24T00:16:51.908Z,15.96
2022-09-24T00:19:20.200Z,15.13
2022-09-24T00:21:48.426Z,15.93
2022-09-24T00:24:32.472Z,15.94
2022-09-24T00:27:03.068Z,15.92
2022-09-24T00:29:34.212Z,15.96
2022-09-24T00:32:03.821Z,15.85
2022-09-24T00:34:32.136Z,15.84
2022-09-24T00:37:00.385Z,15.91
2022-09-24T00:39:29.027Z,15.89
2022-09-24T00:41:57.289Z,15.90
2022-09-24T00:44:53.816Z,15.91
2022-09-24T00:47:31.138Z,15.89
2022-09-24T00:50:08.066Z,15.89
2022-09-24T00:52:39.902Z,15.91
2022-09-24T00:55:10.863Z,15.90
2022-09-24T00:57:41.488Z,15.90
2022-09-24T01:00:14.970Z,15.91
2022-09-24T01:02:47.890Z,15.91
2022-09-24T01:05:16.313Z,15.83
2022-09-24T01:07:44.848Z,15.89
2022-09-24T01:10:13.156Z,15.85
2022-09-24T01:12:46.390Z,15.69
2022-09-24T01:15:23.705Z,15.46
2022-09-24T01:17:59.822Z,15.87
2022-09-24T01:20:54.651Z,15.87
2022-09-24T01:23:48.554Z,15.82
2022-09-24T01:26:39.565Z,15.89
2022-09-24T01:29:42.343Z,15.87
2022-09-24T01:32:18.472Z,15.86
2022-09-24T01:34:50.537Z,15.84
2022-09-24T01:37:22.294Z,15.86
2022-09-24T01:39:53.379Z,15.88
2022-09-24T01:42:23.582Z,15.88
2022-09-24T01:44:53.728Z,15.88
2022-09-24T01:47:29.929Z,15.86
2022-09-24T01:50:03.082Z,15.80
2022-09-24T01:52:36.217Z,15.84
2022-09-24T01:55:07.838Z,15.82
2022-09-24T01:57:40.114Z,15.79
2022-09-24T02:00:13.102Z,15.78
2022-09-24T02:02:46.521Z,15.34
2022-09-24T02:05:21.226Z,15.73
2022-09-24T02:07:58.553Z,15.72
2022-09-24T02:10:31.992Z,15.72
2022-09-24T02:13:05.246Z,15.74
2022-09-24T02:15:39.345Z,15.73
2022-09-24T02:18:10.365Z,15.74
2022-09-24T02:20:41.966Z,15.53
2022-09-24T02:23:12.364Z,15.76
2022-09-24T02:25:44.340Z,15.78
2022-09-24T02:28:12.677Z,15.78
2022-09-24T02:30:48.301Z,15.60
2022-09-24T02:33:35.316Z,15.80
2022-09-24T02:36:03.903Z,15.81
2022-09-24T02:38:32.222Z,15.85
2022-09-24T02:41:00.657Z,15.85
2022-09-24T02:43:28.998Z,15.86
2022-09-24T02:45:58.620Z,15.86
2022-09-24T02:48:26.814Z,15.84
2022-09-24T02:50:55.151Z,15.87
2022-09-24T02:53:23.365Z,15.86
2022-09-24T02:55:51.649Z,15.85
2022-09-24T02:58:19.985Z,15.88
2022-09-24T03:00:48.399Z,15.93
2022-09-24T03:03:18.015Z,15.93
2022-09-24T03:05:47.182Z,15.92
2022-09-24T03:08:15.401Z,15.94
2022-09-24T03:10:43.573Z,15.92
2022-09-24T03:13:12.182Z,15.93
2022-09-24T03:15:40.558Z,15.63
2022-09-24T03:18:08.762Z,15.94
2022-09-24T03:20:39.977Z,15.95
2022-09-24T03:23:08.440Z,15.85
2022-09-24T03:25:36.685Z,15.92
2022-09-24T03:28:04.983Z,15.74
2022-09-24T03:30:50.620Z,15.91
2022-09-24T03:33:18.971Z,15.89
2022-09-24T03:35:48.568Z,15.89
2022-09-24T03:38:16.860Z,15.90
2022-09-24T03:40:45.062Z,15.87
2022-09-24T03:43:13.435Z,15.88
2022-09-24T03:45:41.664Z,15.85
2022-09-24T03:48:09.910Z,15.91
2022-09-24T03:50:38.701Z,15.92
2022-09-24T03:53:08.495Z,15.90
2022-09-24T03:55:37.005Z,15.71
2022-09-24T03:58:05.272Z,15.82
2022-09-24T04:00:36.408Z,15.81
2022-09-24T04:03:08.623Z,15.81
2022-09-24T04:05:37.393Z,15.79
2022-09-24T04:08:06.346Z,15.81
2022-09-24T04:10:35.887Z,15.80
2022-09-24T04:13:04.348Z,15.72
2022-09-24T04:15:33.897Z,15.79
2022-09-24T04:18:02.224Z,15.79
2022-09-24T04:20:31.157Z,15.76
2022-09-24T04:23:00.473Z,15.53
2022-09-24T04:25:31.536Z,15.39
2022-09-24T04:28:03.219Z,15.77
2022-09-24T04:30:32.651Z,15.76
2022-09-24T04:33:02.621Z,15.75
2022-09-24T04:35:33.004Z,15.75
2022-09-24T04:38:01.389Z,15.75
2022-09-24T04:40:30.091Z,15.75
2022-09-24T04:43:00.183Z,15.73
2022-09-24T04:45:28.478Z,15.70
2022-09-24T04:47:58.016Z,15.70
2022-09-24T04:50:28.822Z,15.66
2022-09-24T04:52:57.414Z,15.65
2022-09-24T04:55:26.218Z,15.63
2022-09-24T04:57:57.321Z,15.49
2022-09-24T05:00:27.018Z,15.61
2022-09-24T05:02:59.666Z,15.52
2022-09-24T05:05:28.348Z,15.63
2022-09-24T05:07:58.432Z,15.63
2022-09-24T05:10:27.542Z,15.60
2022-09-24T05:12:55.841Z,15.64
2022-09-24T05:15:24.099Z,15.61
2022-09-24T05:17:53.841Z,15.62
2022-09-24T05:20:22.041Z,15.61
2022-09-24T05:22:50.889Z,15.62
2022-09-24T05:25:21.421Z,15.62
2022-09-24T05:27:50.427Z,15.62
2022-09-24T05:30:19.934Z,15.53
2022-09-24T05:32:49.644Z,15.62
2022-09-24T05:35:19.751Z,15.59
2022-09-24T05:37:49.741Z,15.52
2022-09-24T05:40:35.581Z,15.59
2022-09-24T05:43:05.793Z,15.41
2022-09-24T05:45:34.357Z,15.57
2022-09-24T05:48:03.135Z,15.56
2022-09-24T05:50:35.093Z,15.58
2022-09-24T05:53:04.014Z,15.36
2022-09-24T05:55:32.892Z,15.56
2022-09-24T05:58:06.784Z,15.57
2022-09-24T06:00:36.093Z,15.56
2022-09-24T06:03:07.976Z,15.59
2022-09-24T06:05:37.840Z,15.62
2022-09-24T06:08:08.773Z,16.47
2022-09-24T06:10:37.697Z,16.05
2022-09-24T06:13:06.336Z,15.87
2022-09-24T06:15:36.159Z,15.78
2022-09-24T06:18:04.457Z,15.77
2022-09-24T06:20:33.609Z,15.76
2022-09-24T06:23:03.612Z,15.77
2022-09-24T06:25:32.268Z,15.52
2022-09-24T06:28:02.107Z,15.73
2022-09-24T06:30:31.447Z,15.52
2022-09-24T06:33:05.203Z,15.73
2022-09-24T06:35:35.329Z,15.75
2022-09-24T06:38:06.637Z,15.77
2022-09-24T06:40:37.348Z,15.58
2022-09-24T06:43:06.852Z,15.77
2022-09-24T06:45:36.254Z,15.81
2022-09-24T06:48:06.608Z,15.84
2022-09-24T06:50:36.088Z,15.78
2022-09-24T06:53:08.913Z,15.88
2022-09-24T06:55:37.848Z,15.90
2022-09-24T06:58:07.705Z,15.74
2022-09-24T07:00:37.226Z,15.85
2022-09-24T07:03:05.981Z,15.99
2022-09-24T07:05:38.323Z,16.03
2022-09-24T07:08:10.871Z,16.04
2022-09-24T07:10:39.777Z,16.09
2022-09-24T07:13:07.994Z,16.11
2022-09-24T07:15:36.278Z,16.11
2022-09-24T07:18:04.751Z,16.12
2022-09-24T07:20:34.169Z,16.15
2022-09-24T07:23:02.424Z,16.17
2022-09-24T07:25:32.507Z,16.18
2022-09-24T07:28:05.272Z,16.18
2022-09-24T07:30:33.989Z,16.17
2022-09-24T07:33:02.453Z,16.17
2022-09-24T07:35:31.253Z,16.18
2022-09-24T07:38:01.445Z,16.25
2022-09-24T07:40:32.873Z,16.31
2022-09-24T07:43:01.856Z,16.33
2022-09-24T07:45:31.611Z,16.34
2022-09-24T07:48:01.718Z,16.38
2022-09-24T07:50:31.565Z,16.44
2022-09-24T07:53:00.639Z,16.50
2022-09-24T07:55:28.989Z,16.52
2022-09-24T07:57:58.691Z,16.60
2022-09-24T08:00:26.902Z,16.65
2022-09-24T08:02:56.622Z,16.73
2022-09-24T08:05:33.038Z,16.79
2022-09-24T08:08:01.577Z,16.79
2022-09-24T08:10:30.055Z,16.83
2022-09-24T08:13:02.816Z,16.85
2022-09-24T08:15:31.493Z,16.95
2022-09-24T08:18:03.539Z,17.03
2022-09-24T08:20:32.822Z,17.16
2022-09-24T08:23:03.081Z,17.31
2022-09-24T08:25:31.983Z,17.45
2022-09-24T08:28:04.611Z,17.65
2022-09-24T08:30:33.592Z,17.80
2022-09-24T08:33:01.873Z,17.85
2022-09-24T08:35:30.169Z,17.88
2022-09-24T08:38:00.686Z,17.94
2022-09-24T08:40:32.680Z,18.06
2022-09-24T08:43:10.539Z,18.14
2022-09-24T08:46:03.117Z,18.21
2022-09-24T08:48:37.206Z,18.11
2022-09-24T08:51:09.618Z,17.96
2022-09-24T08:53:48.761Z,17.88
2022-09-24T08:56:22.202Z,17.74
2022-09-24T08:58:57.999Z,17.69
2022-09-24T09:01:36.945Z,17.70
2022-09-24T09:04:20.249Z,17.73
2022-09-24T09:07:06.431Z,17.84
2022-09-24T09:09:44.433Z,18.02
2022-09-24T09:12:17.234Z,18.21
2022-09-24T09:14:52.133Z,18.41
2022-09-24T09:17:36.099Z,18.40
2022-09-24T09:20:09.084Z,18.71
2022-09-24T09:22:44.585Z,18.83
2022-09-24T09:25:20.558Z,18.92
2022-09-24T09:27:52.866Z,19.03
2022-09-24T09:30:23.240Z,19.11
2022-09-24T09:33:09.318Z,19.17
2022-09-24T09:35:45.643Z,19.24
2022-09-24T09:38:24.105Z,19.22
2022-09-24T09:41:00.982Z,19.23
2022-09-24T09:43:29.379Z,19.14
2022-09-24T09:46:08.873Z,18.99
2022-09-24T09:48:45.980Z,18.91
2022-09-24T09:51:22.775Z,18.62
2022-09-24T09:53:58.704Z,18.79
2022-09-24T09:56:30.014Z,18.78
2022-09-24T09:59:09.917Z,18.86
2022-09-24T10:01:41.901Z,18.90
2022-09-24T10:04:30.177Z,18.87
2022-09-24T10:07:06.777Z,18.92
2022-09-24T10:09:35.278Z,19.03
2022-09-24T10:12:16.217Z,19.15
2022-09-24T10:14:45.529Z,19.22
2022-09-24T10:17:20.581Z,19.33
2022-09-24T10:19:51.018Z,19.35
2022-09-24T10:22:23.418Z,19.35
2022-09-24T10:24:52.826Z,19.39
2022-09-24T10:27:30.379Z,19.43
2022-09-24T10:30:17.073Z,19.45
2022-09-24T10:32:48.843Z,19.56
2022-09-24T10:35:27.765Z,19.76
2022-09-24T10:37:58.075Z,19.92
2022-09-24T10:40:31.097Z,19.91
2022-09-24T10:43:01.976Z,20.12
2022-09-24T10:46:06.820Z,20.25
2022-09-24T10:48:44.625Z,20.40
2022-09-24T10:51:29.137Z,20.52
2022-09-24T10:54:16.819Z,20.69
2022-09-24T10:56:51.833Z,20.81
2022-09-24T10:59:45.639Z,21.06
2022-09-24T11:02:34.593Z,21.20
2022-09-24T11:05:10.311Z,21.41
2022-09-24T11:07:55.730Z,21.47
2022-09-24T11:10:37.168Z,21.47
2022-09-24T11:13:17.859Z,21.51
2022-09-24T11:16:16.755Z,21.50
2022-09-24T11:18:57.717Z,21.49
2022-09-24T11:21:49.756Z,21.52
2022-09-24T11:24:54.729Z,21.50
2022-09-24T11:27:43.102Z,21.46
2022-09-24T11:30:14.462Z,21.51
2022-09-24T11:33:03.919Z,21.53
2022-09-24T11:35:46.080Z,21.50
2022-09-24T11:41:17.041Z,21.44
2022-09-24T11:44:23.673Z,21.30
2022-09-24T11:47:06.887Z,21.40
2022-09-24T11:49:49.770Z,21.56
2022-09-24T11:52:29.219Z,21.65
2022-09-24T11:55:06.030Z,21.55
2022-09-24T11:57:38.721Z,21.80
2022-09-24T12:00:13.906Z,21.65
2022-09-24T12:02:45.140Z,21.87
2022-09-24T12:05:21.634Z,21.88
2022-09-24T12:07:55.235Z,21.86
2022-09-24T12:10:34.764Z,21.87
2022-09-24T12:13:13.594Z,21.94
2022-09-24T12:15:49.057Z,22.00
2022-09-24T12:18:22.558Z,22.06
2022-09-24T12:20:54.330Z,22.15
2022-09-24T12:23:28.306Z,22.18
2022-09-24T12:25:59.635Z,22.17
2022-09-24T12:28:51.845Z,22.28
2022-09-24T12:31:44.946Z,22.30
2022-09-24T12:34:20.673Z,22.27
2022-09-24T12:36:59.106Z,21.88
2022-09-24T12:39:33.934Z,22.39
2022-09-24T12:42:08.038Z,22.37
2022-09-24T12:44:43.361Z,22.46
2022-09-24T12:47:21.703Z,22.46
2022-09-24T12:49:55.701Z,22.41
2022-09-24T12:52:28.487Z,22.24
2022-09-24T12:55:00.605Z,22.37
2022-09-24T12:57:33.951Z,22.41
2022-09-24T13:00:04.303Z,22.47
2022-09-24T13:02:46.353Z,22.47
2022-09-24T13:05:28.389Z,22.40
2022-09-24T13:08:00.101Z,22.36
2022-09-24T13:10:31.077Z,22.39
2022-09-24T13:13:01.880Z,22.38
2022-09-24T13:15:35.943Z,22.58
2022-09-24T13:18:19.940Z,22.65
2022-09-24T13:21:00.917Z,22.76
2022-09-24T13:23:46.563Z,22.79
2022-09-24T13:26:27.837Z,22.74
2022-09-24T13:28:59.305Z,22.75
2022-09-24T13:31:35.118Z,22.75
2022-09-24T13:34:14.057Z,22.70
2022-09-24T13:36:47.089Z,22.72
2022-09-24T13:39:20.176Z,22.74
2022-09-24T13:41:56.497Z,22.77
2022-09-24T13:44:31.519Z,22.83
2022-09-24T13:47:03.888Z,22.84
2022-09-24T13:49:35.075Z,22.89
2022-09-24T13:52:14.894Z,22.98
2022-09-24T13:54:53.353Z,22.96
2022-09-24T13:57:24.792Z,23.00
2022-09-24T14:00:15.397Z,22.96
2022-09-24T14:02:46.421Z,22.86
2022-09-24T14:05:18.731Z,22.77
2022-09-24T14:07:56.197Z,22.88
2022-09-24T14:10:25.057Z,22.87
2022-09-24T14:13:03.375Z,22.83
2022-09-24T14:15:33.108Z,22.79
2022-09-24T14:18:01.508Z,22.71
2022-09-24T14:20:34.562Z,22.59
2022-09-24T14:23:05.211Z,22.49
2022-09-24T14:25:37.949Z,22.43
2022-09-24T14:28:06.974Z,22.46
2022-09-24T14:30:40.524Z,22.41
2022-09-24T14:33:16.426Z,22.35
2022-09-24T14:35:48.428Z,22.36
2022-09-24T14:38:23.701Z,22.34
2022-09-24T14:40:56.887Z,22.33
2022-09-24T14:43:31.554Z,22.28
2022-09-24T14:46:07.596Z,22.28
2022-09-24T14:48:36.780Z,22.26
2022-09-24T14:51:05.477Z,22.23
2022-09-24T14:53:38.304Z,22.14
2022-09-24T14:56:21.261Z,22.07
2022-09-24T14:58:49.692Z,21.98
2022-09-24T15:01:22.555Z,21.99
2022-09-24T15:03:53.296Z,21.94
2022-09-24T15:06:28.021Z,21.88
2022-09-24T15:09:00.737Z,21.85
2022-09-24T15:11:31.585Z,21.07
2022-09-24T15:14:02.449Z,21.29
2022-09-24T15:16:34.674Z,21.78
2022-09-24T15:19:17.557Z,21.84
2022-09-24T15:21:46.365Z,21.82
2022-09-24T15:24:14.597Z,21.80
2022-09-24T15:26:45.337Z,21.70
2022-09-24T15:29:20.733Z,21.83
2022-09-24T15:31:50.698Z,21.79
2022-09-24T15:34:20.233Z,21.77
2022-09-24T15:36:49.571Z,21.74
2022-09-24T15:39:20.487Z,21.72
2022-09-24T15:41:48.946Z,21.66
2022-09-24T15:44:22.664Z,21.62
2022-09-24T15:46:54.209Z,21.59
2022-09-24T15:49:24.281Z,21.57
2022-09-24T15:51:57.255Z,21.46
2022-09-24T15:54:25.561Z,21.38
2022-09-24T15:56:55.004Z,21.37
2022-09-24T15:59:24.673Z,21.28
2022-09-24T16:01:58.420Z,21.27
2022-09-24T16:04:26.902Z,21.23
2022-09-24T16:06:55.124Z,21.17
2022-09-24T16:09:25.869Z,21.11
2022-09-24T16:11:57.895Z,21.06
2022-09-24T16:14:26.234Z,21.03
2022-09-24T16:16:57.365Z,21.01
2022-09-24T16:19:26.131Z,20.88
2022-09-24T16:21:55.080Z,20.84
2022-09-24T16:24:23.672Z,20.79
2022-09-24T16:26:51.893Z,20.79
2022-09-24T16:29:20.619Z,20.78
2022-09-24T16:31:49.595Z,20.77
2022-09-24T16:34:19.300Z,20.78
2022-09-24T16:36:48.564Z,20.75
2022-09-24T16:39:16.953Z,20.70
2022-09-24T16:41:45.344Z,20.68
2022-09-24T16:44:15.272Z,20.66
2022-09-24T16:46:43.985Z,20.62
2022-09-24T16:49:12.636Z,20.58
2022-09-24T16:51:42.336Z,20.55
2022-09-24T16:54:12.145Z,20.53
2022-09-24T16:56:43.039Z,20.48
2022-09-24T16:59:12.014Z,20.43
2022-09-24T17:01:42.636Z,20.38
2022-09-24T17:04:11.254Z,20.31
2022-09-24T17:06:40.487Z,20.28
2022-09-24T17:09:28.699Z,19.63
2022-09-24T17:11:57.483Z,20.15
2022-09-24T17:14:25.976Z,20.09
2022-09-24T17:16:54.336Z,20.06
2022-09-24T17:19:22.676Z,20.02
2022-09-24T17:21:51.272Z,19.99
2022-09-24T17:24:21.988Z,19.94
2022-09-24T17:26:50.672Z,19.91
2022-09-24T17:29:20.848Z,19.92
2022-09-24T17:31:49.332Z,19.88
2022-09-24T17:34:17.977Z,19.68
2022-09-24T17:36:46.303Z,19.78
2022-09-24T17:39:15.306Z,19.72
2022-09-24T17:41:45.003Z,19.67
2022-09-24T17:44:14.786Z,19.64
2022-09-24T17:46:43.133Z,19.57
2022-09-24T17:49:12.114Z,19.56
2022-09-24T17:51:40.648Z,19.58
2022-09-24T17:54:12.222Z,19.41
2022-09-24T17:56:41.081Z,19.59
2022-09-24T17:59:12.810Z,19.58
2022-09-24T18:01:43.021Z,19.58
2022-09-24T18:04:13.564Z,19.58
2022-09-24T18:06:43.309Z,19.58
2022-09-24T18:09:13.003Z,19.56
2022-09-24T18:11:42.961Z,19.50
2022-09-24T18:14:16.957Z,19.30
2022-09-24T18:16:46.363Z,19.35
2022-09-24T18:19:17.224Z,19.41
2022-09-24T18:21:46.023Z,19.39
2022-09-24T18:24:14.634Z,19.39
2022-09-24T18:26:43.226Z,19.31
2022-09-24T18:29:16.652Z,19.29
2022-09-24T18:31:45.610Z,19.24
2022-09-24T18:34:15.402Z,19.21
2022-09-24T18:36:45.350Z,18.23
2022-09-24T18:39:21.952Z,18.47
2022-09-24T18:41:52.296Z,19.10
2022-09-24T18:44:22.011Z,19.11
2022-09-24T18:46:50.575Z,19.12
2022-09-24T18:49:19.525Z,19.11
2022-09-24T18:51:49.045Z,19.06
2022-09-24T18:54:18.428Z,19.05
2022-09-24T18:56:47.480Z,19.04
2022-09-24T18:59:18.222Z,19.04
2022-09-24T19:01:49.467Z,19.00
2022-09-24T19:04:18.646Z,18.94
2022-09-24T19:06:49.944Z,18.75
2022-09-24T19:09:18.848Z,18.82
2022-09-24T19:11:49.087Z,18.78
2022-09-24T19:14:18.594Z,18.74
2022-09-24T19:16:50.313Z,18.70
2022-09-24T19:19:18.552Z,18.62
2022-09-24T19:21:47.055Z,18.57
2022-09-24T19:24:15.334Z,18.57
2022-09-24T19:26:43.713Z,18.61
2022-09-24T19:29:12.181Z,18.58
2022-09-24T19:31:42.525Z,18.38
2022-09-24T19:34:14.642Z,18.54
2022-09-24T19:36:44.837Z,18.37
2022-09-24T19:39:15.667Z,18.51
2022-09-24T19:41:44.331Z,18.44
2022-09-24T19:44:13.690Z,18.43
2022-09-24T19:46:43.936Z,18.42
2022-09-24T19:49:13.857Z,18.42
2022-09-24T19:51:42.035Z,18.40
2022-09-24T19:54:11.663Z,18.42
2022-09-24T19:56:40.167Z,18.42
2022-09-24T19:59:09.641Z,18.43
2022-09-24T20:01:38.364Z,18.39
2022-09-24T20:04:08.420Z,18.33
2022-09-24T20:06:39.516Z,18.20
2022-09-24T20:09:08.340Z,18.43
2022-09-24T20:11:37.011Z,18.43
2022-09-24T20:14:09.130Z,18.38
2022-09-24T20:16:38.422Z,18.33
2022-09-24T20:19:06.978Z,18.26
2022-09-24T20:21:38.761Z,18.23
2022-09-24T20:24:08.667Z,18.19
2022-09-24T20:26:55.253Z,18.14
2022-09-24T20:29:24.152Z,18.07
2022-09-24T20:31:55.641Z,18.04
2022-09-24T20:34:33.866Z,18.03
2022-09-24T20:37:05.743Z,17.97
2022-09-24T20:39:35.174Z,17.93
2022-09-24T20:42:06.009Z,17.88
2022-09-24T20:44:34.872Z,17.85
2022-09-24T20:47:03.104Z,17.78
2022-09-24T20:49:33.300Z,17.69
2022-09-24T20:52:03.502Z,17.66
2022-09-24T20:54:31.786Z,17.70
2022-09-24T20:57:01.021Z,17.71
2022-09-24T20:59:29.967Z,17.73
2022-09-24T21:01:58.413Z,17.74
2022-09-24T21:04:27.150Z,17.74
2022-09-24T21:06:55.853Z,17.65
2022-09-24T21:09:25.563Z,17.64
2022-09-24T21:11:54.548Z,17.59
2022-09-24T21:14:23.460Z,17.55
2022-09-24T21:16:54.237Z,17.49
2022-09-24T21:19:22.556Z,17.44
2022-09-24T21:21:52.282Z,17.42
2022-09-24T21:24:20.761Z,17.40
2022-09-24T21:26:50.342Z,17.44
2022-09-24T21:29:21.830Z,17.50
2022-09-24T21:31:50.273Z,17.52
2022-09-24T21:34:20.859Z,17.53
2022-09-24T21:36:49.714Z,17.46
2022-09-24T21:39:19.687Z,17.52
2022-09-24T21:41:51.408Z,17.51
2022-09-24T21:44:20.439Z,17.48
2022-09-24T21:46:52.801Z,17.46
2022-09-24T21:49:22.985Z,17.36
2022-09-24T21:51:52.590Z,17.26
2022-09-24T21:54:21.022Z,17.16
2022-09-24T21:56:50.906Z,17.10
2022-09-24T21:59:36.944Z,17.06
2022-09-24T22:02:05.776Z,17.05
2022-09-24T22:04:34.020Z,17.00
2022-09-24T22:07:02.666Z,17.00
2022-09-24T22:09:32.012Z,16.96
2022-09-24T22:12:02.524Z,16.96
2022-09-24T22:14:31.099Z,16.90
2022-09-24T22:16:59.479Z,16.88
2022-09-24T22:19:27.792Z,16.82
2022-09-24T22:21:56.004Z,16.69
2022-09-24T22:24:24.351Z,16.70
2022-09-24T22:26:54.124Z,16.63
2022-09-24T22:29:24.015Z,16.55
2022-09-24T22:31:52.317Z,16.49
2022-09-24T22:34:37.808Z,16.41
2022-09-24T22:37:07.690Z,16.31
2022-09-24T22:39:36.453Z,16.24
2022-09-24T22:42:05.189Z,16.18
2022-09-24T22:44:35.150Z,16.21
2022-09-24T22:47:03.387Z,16.19
2022-09-24T22:49:32.778Z,16.18
2022-09-24T22:52:01.007Z,16.14
2022-09-24T22:54:29.493Z,16.05
2022-09-24T22:56:57.746Z,15.97
2022-09-24T22:59:26.073Z,15.91
2022-09-24T23:01:55.665Z,15.89
2022-09-24T23:04:24.224Z,15.84
2022-09-24T23:06:52.797Z,15.80
2022-09-24T23:09:21.796Z,15.73
2022-09-24T23:11:50.092Z,15.65
2022-09-24T23:14:18.576Z,15.60
2022-09-24T23:16:46.953Z,15.62
2022-09-24T23:19:20.273Z,15.58
2022-09-24T23:21:48.581Z,15.47
2022-09-24T23:24:18.691Z,15.39
2022-09-24T23:26:48.463Z,15.25
2022-09-24T23:29:17.339Z,15.36
2022-09-24T23:31:45.794Z,15.31
2022-09-24T23:34:15.025Z,15.27
2022-09-24T23:36:46.627Z,15.24
2022-09-24T23:39:15.229Z,15.24
2022-09-24T23:41:43.512Z,15.24
2022-09-24T23:44:12.070Z,15.17
2022-09-24T23:46:41.566Z,15.16
2022-09-24T23:49:10.329Z,15.04
2022-09-24T23:51:38.825Z,15.01
2022-09-24T23:54:08.856Z,15.00
2022-09-24T23:56:37.233Z,14.97
2022-09-24T23:59:05.637Z,14.98
